createdAt,value
2023-09-04T00:00:12.645Z,63.22
2023-09-04T00:02:39.402Z,63.45
2023-09-04T00:05:06.204Z,62.69
2023-09-04T00:07:32.744Z,63.88
2023-09-04T00:09:59.231Z,64.26
2023-09-04T00:12:26.722Z,64.88
2023-09-04T00:14:53.268Z,65.17
2023-09-04T00:17:19.877Z,64.38
2023-09-04T00:19:46.715Z,63.79
2023-09-04T00:22:14.216Z,64.42
2023-09-04T00:24:40.689Z,63.16
2023-09-04T00:27:08.695Z,62.67
2023-09-04T00:29:35.233Z,64.36
2023-09-04T00:32:03.609Z,65.27
2023-09-04T00:34:30.471Z,66.02
2023-09-04T00:36:57.091Z,65.65
2023-09-04T00:39:23.771Z,64.91
2023-09-04T00:41:50.516Z,65.05
2023-09-04T00:44:18.821Z,65.33
2023-09-04T00:46:45.784Z,65.90
2023-09-04T00:49:14.083Z,65.97
2023-09-04T00:51:40.998Z,66.42
2023-09-04T00:54:09.793Z,66.05
2023-09-04T00:56:36.637Z,66.23
2023-09-04T00:59:03.313Z,66.91
2023-09-04T01:01:31.206Z,68.08
2023-09-04T01:03:57.905Z,67.37
2023-09-04T01:06:24.535Z,66.04
2023-09-04T01:08:51.983Z,65.94
2023-09-04T01:11:45.791Z,66.00
2023-09-04T01:14:17.507Z,66.88
2023-09-04T01:16:45.148Z,67.23
2023-09-04T01:19:12.153Z,67.82
2023-09-04T01:21:39.280Z,67.82
2023-09-04T01:24:10.288Z,66.90
2023-09-04T01:26:56.444Z,66.19
2023-09-04T01:29:40.930Z,66.56
2023-09-04T01:32:17.611Z,66.35
2023-09-04T01:34:48.194Z,66.01
2023-09-04T01:37:15.431Z,66.60
2023-09-04T01:39:43.284Z,67.03
2023-09-04T01:42:10.111Z,67.65
2023-09-04T01:44:36.799Z,66.30
2023-09-04T01:47:03.550Z,64.99
2023-09-04T01:49:30.176Z,66.25
2023-09-04T01:52:00.996Z,68.66
2023-09-04T01:54:28.241Z,68.14
2023-09-04T01:56:54.766Z,67.99
2023-09-04T01:59:21.803Z,68.66
2023-09-04T02:01:48.718Z,68.19
2023-09-04T02:04:15.276Z,69.18
2023-09-04T02:06:41.864Z,69.43
2023-09-04T02:09:09.001Z,69.32
2023-09-04T02:11:35.650Z,69.81
2023-09-04T02:14:02.232Z,69.62
2023-09-04T02:16:29.171Z,70.32
2023-09-04T02:18:56.546Z,69.85
2023-09-04T02:21:23.250Z,69.63
2023-09-04T02:23:49.787Z,70.49
2023-09-04T02:26:16.397Z,70.67
2023-09-04T02:28:42.927Z,70.54
2023-09-04T02:31:10.265Z,70.75
2023-09-04T02:33:36.989Z,71.17
2023-09-04T02:36:04.191Z,70.88
2023-09-04T02:38:30.861Z,70.57
2023-09-04T02:40:57.488Z,70.58
2023-09-04T02:43:24.944Z,70.34
2023-09-04T02:45:53.457Z,70.43
2023-09-04T02:48:20.337Z,70.23
2023-09-04T02:50:46.983Z,70.13
2023-09-04T02:53:13.637Z,69.51
2023-09-04T02:55:40.157Z,69.67
2023-09-04T02:58:06.717Z,69.37
2023-09-04T03:00:33.330Z,69.44
2023-09-04T03:03:00.082Z,69.27
2023-09-04T03:05:28.190Z,69.52
2023-09-04T03:07:55.390Z,69.19
2023-09-04T03:10:22.183Z,69.20
2023-09-04T03:12:48.921Z,68.88
2023-09-04T03:15:15.484Z,68.81
2023-09-04T03:17:42.023Z,69.32
2023-09-04T03:20:10.829Z,69.14
2023-09-04T03:22:37.381Z,69.25
2023-09-04T03:25:04.184Z,68.90
2023-09-04T03:27:30.829Z,68.86
2023-09-04T03:29:58.026Z,68.97
2023-09-04T03:32:25.120Z,68.98
2023-09-04T03:34:51.612Z,69.07
2023-09-04T03:37:18.164Z,68.92
2023-09-04T03:39:44.710Z,68.85
2023-09-04T03:42:11.261Z,68.52
2023-09-04T03:44:37.789Z,68.60
2023-09-04T03:47:04.555Z,68.85
2023-09-04T03:49:31.396Z,68.96
2023-09-04T03:51:57.914Z,68.63
2023-09-04T03:54:24.526Z,68.46
2023-09-04T03:56:51.293Z,68.66
2023-09-04T03:59:18.009Z,68.54
2023-09-04T04:01:44.832Z,67.86
2023-09-04T04:04:14.320Z,68.53
2023-09-04T04:06:41.319Z,68.41
2023-09-04T04:09:08.306Z,65.96
2023-09-04T04:11:36.767Z,67.00
2023-09-04T04:14:03.362Z,67.79
2023-09-04T04:16:33.113Z,67.56
2023-09-04T04:18:59.709Z,68.21
2023-09-04T04:21:26.248Z,67.65
2023-09-04T04:23:52.901Z,68.25
2023-09-04T04:26:19.712Z,67.85
2023-09-04T04:28:46.614Z,68.40
2023-09-04T04:31:13.180Z,69.48
2023-09-04T04:33:39.984Z,70.11
2023-09-04T04:36:06.455Z,70.25
2023-09-04T04:38:32.985Z,70.04
2023-09-04T04:40:59.583Z,69.99
2023-09-04T04:43:26.145Z,70.25
2023-09-04T04:45:54.304Z,70.50
2023-09-04T04:48:21.381Z,71.04
2023-09-04T04:50:47.975Z,71.10
2023-09-04T04:53:14.548Z,71.28
2023-09-04T04:55:41.075Z,70.96
2023-09-04T04:58:07.617Z,70.98
2023-09-04T05:00:34.472Z,70.99
2023-09-04T05:03:01.039Z,70.92
2023-09-04T05:05:27.590Z,70.78
2023-09-04T05:07:54.077Z,70.62
2023-09-04T05:10:20.583Z,70.48
2023-09-04T05:12:47.062Z,69.91
2023-09-04T05:15:13.611Z,69.71
2023-09-04T05:17:40.161Z,69.46
2023-09-04T05:20:07.326Z,69.39
2023-09-04T05:22:34.281Z,68.46
2023-09-04T05:25:01.300Z,68.32
2023-09-04T05:27:27.988Z,68.33
2023-09-04T05:29:55.759Z,68.46
2023-09-04T05:32:22.890Z,68.43
2023-09-04T05:34:53.456Z,68.37
2023-09-04T05:37:20.259Z,67.45
2023-09-04T05:39:46.812Z,67.60
2023-09-04T05:42:13.609Z,67.79
2023-09-04T05:44:40.222Z,67.95
2023-09-04T05:47:07.167Z,66.75
2023-09-04T05:49:36.416Z,67.14
2023-09-04T05:52:04.098Z,66.68
2023-09-04T05:54:31.015Z,66.98
2023-09-04T05:56:57.565Z,65.68
2023-09-04T05:59:24.592Z,65.74
2023-09-04T06:01:51.168Z,65.45
2023-09-04T06:04:17.757Z,65.37
2023-09-04T06:06:44.408Z,65.24
2023-09-04T06:09:11.054Z,64.99
2023-09-04T06:11:37.798Z,65.21
2023-09-04T06:14:04.727Z,65.03
2023-09-04T06:16:31.340Z,64.66
2023-09-04T06:18:57.976Z,64.53
2023-09-04T06:21:24.626Z,64.35
2023-09-04T06:23:51.759Z,63.94
2023-09-04T06:26:24.272Z,63.54
2023-09-04T06:28:54.104Z,63.19
2023-09-04T06:31:25.196Z,62.80
2023-09-04T06:33:59.759Z,63.40
2023-09-04T06:36:26.378Z,63.14
2023-09-04T06:38:57.069Z,64.19
2023-09-04T06:41:25.235Z,64.85
2023-09-04T06:43:53.835Z,65.71
2023-09-04T06:46:20.621Z,62.65
2023-09-04T06:48:47.242Z,62.46
2023-09-04T06:51:13.785Z,62.36
2023-09-04T06:53:41.402Z,61.68
2023-09-04T06:56:08.002Z,61.49
2023-09-04T06:58:34.635Z,61.90
2023-09-04T07:01:05.555Z,61.83
2023-09-04T07:03:35.486Z,61.50
2023-09-04T07:06:04.711Z,60.51
2023-09-04T07:08:36.926Z,60.73
2023-09-04T07:11:06.328Z,60.39
2023-09-04T07:13:33.764Z,60.14
2023-09-04T07:16:02.252Z,61.81
2023-09-04T07:18:29.161Z,61.02
2023-09-04T07:20:56.694Z,59.10
2023-09-04T07:23:27.149Z,59.77
2023-09-04T07:26:01.381Z,59.24
2023-09-04T07:28:28.242Z,58.79
2023-09-04T07:31:15.773Z,58.16
2023-09-04T07:33:46.184Z,58.92
2023-09-04T07:36:15.028Z,56.99
2023-09-04T07:38:43.812Z,56.78
2023-09-04T07:41:10.928Z,55.40
2023-09-04T07:43:37.937Z,55.05
2023-09-04T07:46:05.516Z,54.45
2023-09-04T07:48:35.768Z,53.70
2023-09-04T07:51:23.551Z,53.20
2023-09-04T07:53:57.015Z,53.50
2023-09-04T07:58:51.472Z,52.14
2023-09-04T08:01:18.554Z,50.80
2023-09-04T08:03:45.301Z,48.95
2023-09-04T08:06:12.297Z,48.22
2023-09-04T08:08:38.849Z,50.19
2023-09-04T08:11:05.369Z,49.60
2023-09-04T08:13:32.343Z,48.58
2023-09-04T08:15:58.896Z,46.88
2023-09-04T08:18:25.483Z,45.84
2023-09-04T08:20:52.030Z,45.67
2023-09-04T08:23:19.134Z,44.25
2023-09-04T08:25:46.739Z,43.43
2023-09-04T08:28:13.391Z,43.52
2023-09-04T08:30:40.391Z,41.86
2023-09-04T08:33:07.055Z,41.94
2023-09-04T08:35:33.742Z,39.87
2023-09-04T08:38:04.593Z,38.99
2023-09-04T08:40:32.804Z,38.45
2023-09-04T08:43:00.014Z,37.68
2023-09-04T08:45:28.123Z,37.33
2023-09-04T08:47:56.510Z,36.00
2023-09-04T08:50:27.609Z,36.43
2023-09-04T08:52:54.214Z,36.88
2023-09-04T08:55:24.025Z,36.39
2023-09-04T08:57:50.636Z,34.58
2023-09-04T09:00:18.749Z,34.66
2023-09-04T09:02:47.054Z,33.40
2023-09-04T09:05:16.685Z,34.79
2023-09-04T09:07:45.480Z,33.19
2023-09-04T09:10:20.684Z,33.43
2023-09-04T09:12:53.007Z,31.97
2023-09-04T09:15:21.013Z,32.39
2023-09-04T09:17:54.493Z,32.20
2023-09-04T09:20:35.894Z,30.51
2023-09-04T09:23:06.573Z,31.29
2023-09-04T09:25:35.414Z,31.21
2023-09-04T09:28:17.779Z,30.59
2023-09-04T09:30:48.667Z,30.14
2023-09-04T09:33:21.787Z,29.52
2023-09-04T09:35:55.783Z,30.05
2023-09-04T09:38:23.249Z,28.84
2023-09-04T09:40:54.294Z,27.67
2023-09-04T09:43:26.665Z,28.49
2023-09-04T09:45:53.791Z,28.07
2023-09-04T09:48:25.526Z,28.14
2023-09-04T09:50:54.616Z,28.38
2023-09-04T09:53:21.228Z,28.17
2023-09-04T09:55:49.704Z,28.36
2023-09-04T09:58:18.060Z,27.47
2023-09-04T10:00:45.237Z,28.10
2023-09-04T10:03:12.201Z,28.22
2023-09-04T10:05:40.560Z,27.53
2023-09-04T10:08:08.593Z,27.95
2023-09-04T10:10:38.339Z,27.18
2023-09-04T10:13:27.695Z,26.93
2023-09-04T10:15:58.483Z,26.10
2023-09-04T10:18:31.487Z,25.79
2023-09-04T10:21:00.755Z,25.90
2023-09-04T10:23:38.611Z,25.41
2023-09-04T10:26:08.784Z,25.72
2023-09-04T10:28:45.346Z,26.55
2023-09-04T10:31:13.478Z,26.30
2023-09-04T10:33:40.424Z,25.61
2023-09-04T10:36:07.829Z,26.10
2023-09-04T10:38:36.418Z,26.71
2023-09-04T10:41:06.659Z,26.61
2023-09-04T10:43:40.225Z,24.37
2023-09-04T10:46:09.888Z,24.85
2023-09-04T10:48:47.877Z,24.73
2023-09-04T10:51:36.117Z,25.16
2023-09-04T10:54:24.074Z,25.31
2023-09-04T10:56:55.278Z,24.01
2023-09-04T10:59:22.013Z,24.92
2023-09-04T11:01:48.619Z,24.07
2023-09-04T11:04:36.795Z,24.65
2023-09-04T11:07:21.642Z,24.65
2023-09-04T11:09:49.305Z,23.96
2023-09-04T11:12:26.619Z,24.23
2023-09-04T11:14:55.689Z,24.60
2023-09-04T11:17:26.607Z,24.01
2023-09-04T11:19:54.094Z,23.26
2023-09-04T11:22:22.375Z,23.49
2023-09-04T11:24:50.856Z,23.14
2023-09-04T11:27:17.379Z,22.68
2023-09-04T11:29:45.023Z,23.44
2023-09-04T11:32:11.701Z,22.86
2023-09-04T11:34:38.387Z,22.82
2023-09-04T11:37:06.154Z,23.38
2023-09-04T11:39:35.305Z,22.69
2023-09-04T11:42:02.271Z,24.13
2023-09-04T11:44:33.202Z,22.26
2023-09-04T11:47:00.220Z,22.63
2023-09-04T11:49:27.524Z,23.90
2023-09-04T11:51:54.198Z,23.12
2023-09-04T11:54:30.930Z,23.59
2023-09-04T11:56:59.568Z,23.49
2023-09-04T11:59:26.337Z,23.26
2023-09-04T12:01:52.944Z,22.79
2023-09-04T12:04:19.618Z,22.48
2023-09-04T12:06:47.187Z,22.52
2023-09-04T12:09:14.858Z,22.05
2023-09-04T12:11:43.608Z,23.26
2023-09-04T12:14:10.928Z,22.23
2023-09-04T12:16:37.852Z,23.27
2023-09-04T12:19:06.341Z,22.81
2023-09-04T12:21:33.712Z,22.51
2023-09-04T12:24:00.287Z,23.10
2023-09-04T12:26:27.540Z,23.46
2023-09-04T12:28:54.150Z,23.94
2023-09-04T12:31:25.134Z,24.18
2023-09-04T12:33:53.347Z,23.23
2023-09-04T12:36:22.882Z,22.68
2023-09-04T12:38:49.525Z,22.35
2023-09-04T12:41:16.070Z,23.53
2023-09-04T12:43:43.853Z,23.25
2023-09-04T12:46:10.593Z,22.82
2023-09-04T12:48:37.247Z,23.57
2023-09-04T12:51:04.183Z,22.80
2023-09-04T12:53:30.789Z,24.19
2023-09-04T12:55:57.638Z,24.06
2023-09-04T12:58:24.188Z,23.99
2023-09-04T13:00:51.450Z,23.73
2023-09-04T13:03:19.030Z,24.34
2023-09-04T13:05:45.649Z,24.20
2023-09-04T13:08:12.283Z,23.60
2023-09-04T13:10:39.524Z,23.62
2023-09-04T13:13:06.171Z,24.15
2023-09-04T13:15:32.861Z,24.71
2023-09-04T13:17:59.549Z,24.53
2023-09-04T13:20:26.199Z,25.35
2023-09-04T13:22:52.947Z,24.18
2023-09-04T13:25:19.579Z,24.93
2023-09-04T13:27:46.201Z,23.91
2023-09-04T13:30:12.780Z,24.02
2023-09-04T13:32:39.433Z,24.60
2023-09-04T13:35:08.734Z,24.37
2023-09-04T13:37:37.050Z,24.40
2023-09-04T13:40:05.086Z,24.52
2023-09-04T13:42:32.321Z,24.64
2023-09-04T13:44:59.021Z,24.04
2023-09-04T13:47:27.355Z,24.15
2023-09-04T13:49:55.773Z,23.66
2023-09-04T13:52:25.830Z,25.19
2023-09-04T13:54:59.902Z,24.91
2023-09-04T13:57:26.724Z,24.95
2023-09-04T13:59:53.374Z,25.37
2023-09-04T14:02:20.142Z,25.42
2023-09-04T14:04:46.832Z,25.24
2023-09-04T14:07:13.583Z,25.77
2023-09-04T14:09:40.102Z,27.22
2023-09-04T14:12:07.352Z,25.97
2023-09-04T14:14:34.160Z,25.63
2023-09-04T14:17:00.714Z,25.41
2023-09-04T14:19:27.285Z,25.08
2023-09-04T14:21:55.369Z,25.55
2023-09-04T14:24:22.346Z,25.88
2023-09-04T14:26:49.021Z,26.20
2023-09-04T14:29:15.639Z,26.22
2023-09-04T14:31:42.515Z,25.97
2023-09-04T14:34:09.057Z,25.93
2023-09-04T14:36:35.653Z,26.33
2023-09-04T14:39:02.410Z,25.82
2023-09-04T14:41:34.893Z,25.88
2023-09-04T14:44:01.682Z,25.71
2023-09-04T14:46:31.024Z,25.51
2023-09-04T14:48:58.059Z,25.83
2023-09-04T14:51:24.685Z,26.44
2023-09-04T14:53:53.472Z,25.67
2023-09-04T14:56:25.276Z,26.34
2023-09-04T14:58:55.776Z,26.37
2023-09-04T15:01:23.872Z,25.33
2023-09-04T15:03:51.968Z,26.64
2023-09-04T15:06:19.216Z,26.90
2023-09-04T15:08:49.137Z,26.62
2023-09-04T15:11:17.607Z,26.08
2023-09-04T15:13:47.066Z,26.47
2023-09-04T15:16:13.944Z,25.81
2023-09-04T15:18:42.722Z,25.57
2023-09-04T15:21:10.496Z,26.15
2023-09-04T15:23:37.123Z,26.22
2023-09-04T15:26:03.790Z,26.28
2023-09-04T15:28:30.929Z,26.86
2023-09-04T15:31:00.117Z,26.65
2023-09-04T15:33:28.329Z,26.50
2023-09-04T15:35:58.322Z,26.09
2023-09-04T15:38:25.838Z,26.83
2023-09-04T15:40:53.886Z,27.11
2023-09-04T15:43:21.893Z,26.98
2023-09-04T15:45:52.569Z,27.25
2023-09-04T15:48:20.687Z,27.32
2023-09-04T15:50:48.474Z,27.24
2023-09-04T15:53:15.372Z,27.53
2023-09-04T15:55:42.100Z,27.66
2023-09-04T15:58:08.768Z,28.21
2023-09-04T16:00:36.132Z,28.12
2023-09-04T16:03:04.493Z,28.67
2023-09-04T16:05:31.140Z,28.38
2023-09-04T16:07:57.797Z,28.31
2023-09-04T16:10:24.867Z,28.77
2023-09-04T16:12:51.558Z,28.93
2023-09-04T16:15:19.335Z,28.96
2023-09-04T16:17:47.655Z,29.02
2023-09-04T16:20:14.306Z,29.31
2023-09-04T16:22:41.400Z,29.51
2023-09-04T16:25:08.355Z,29.04
2023-09-04T16:27:35.079Z,29.29
2023-09-04T16:30:01.687Z,29.59
2023-09-04T16:32:28.297Z,29.75
2023-09-04T16:34:55.384Z,30.00
2023-09-04T16:37:22.311Z,30.17
2023-09-04T16:39:49.178Z,30.62
2023-09-04T16:42:18.956Z,30.66
2023-09-04T16:44:45.887Z,30.97
2023-09-04T16:47:12.759Z,30.69
2023-09-04T16:49:39.618Z,31.27
2023-09-04T16:52:06.863Z,31.30
2023-09-04T16:54:33.426Z,31.36
2023-09-04T16:57:00.031Z,30.65
2023-09-04T16:59:26.564Z,31.74
2023-09-04T17:01:53.197Z,31.55
2023-09-04T17:04:19.766Z,32.11
2023-09-04T17:06:46.519Z,32.52
2023-09-04T17:09:13.430Z,32.38
2023-09-04T17:11:40.204Z,32.59
2023-09-04T17:14:08.011Z,32.83
2023-09-04T17:16:34.817Z,32.68
2023-09-04T17:19:01.339Z,33.47
2023-09-04T17:21:27.865Z,33.64
2023-09-04T17:23:54.442Z,34.42
2023-09-04T17:26:20.987Z,34.65
2023-09-04T17:28:47.537Z,35.74
2023-09-04T17:31:14.105Z,36.48
2023-09-04T17:33:40.673Z,37.83
2023-09-04T17:36:08.361Z,37.67
2023-09-04T17:38:36.991Z,37.41
2023-09-04T17:41:11.740Z,38.10
2023-09-04T17:43:39.400Z,38.58
2023-09-04T17:46:08.372Z,38.25
2023-09-04T17:48:36.224Z,38.87
2023-09-04T17:51:04.215Z,39.06
2023-09-04T17:53:30.688Z,39.13
2023-09-04T17:55:57.251Z,40.49
2023-09-04T17:58:26.609Z,40.81
2023-09-04T18:00:53.795Z,41.63
2023-09-04T18:03:21.477Z,41.69
2023-09-04T18:05:48.256Z,42.63
2023-09-04T18:08:14.848Z,43.25
2023-09-04T18:10:42.810Z,43.68
2023-09-04T18:13:09.335Z,43.97
2023-09-04T18:15:35.971Z,44.13
2023-09-04T18:18:02.645Z,44.55
2023-09-04T18:20:29.338Z,45.51
2023-09-04T18:22:55.926Z,45.75
2023-09-04T18:25:22.923Z,45.61
2023-09-04T18:27:51.235Z,45.63
2023-09-04T18:30:17.852Z,45.62
2023-09-04T18:32:44.377Z,46.63
2023-09-04T18:35:11.380Z,46.16
2023-09-04T18:37:37.905Z,47.12
2023-09-04T18:40:05.626Z,47.76
2023-09-04T18:42:32.321Z,47.71
2023-09-04T18:44:59.042Z,47.96
2023-09-04T18:47:25.764Z,47.87
2023-09-04T18:49:52.401Z,47.70
2023-09-04T18:52:20.976Z,49.31
2023-09-04T18:54:48.561Z,49.14
2023-09-04T18:57:17.226Z,49.12
2023-09-04T18:59:43.928Z,49.34
2023-09-04T19:02:10.606Z,50.46
2023-09-04T19:04:39.307Z,50.89
2023-09-04T19:07:05.932Z,50.41
2023-09-04T19:09:33.362Z,49.92
2023-09-04T19:12:00.257Z,50.28
2023-09-04T19:14:26.880Z,50.93
2023-09-04T19:16:53.447Z,51.08
2023-09-04T19:19:20.111Z,51.18
2023-09-04T19:21:46.648Z,51.18
2023-09-04T19:24:13.317Z,51.24
2023-09-04T19:26:39.904Z,52.11
2023-09-04T19:29:06.604Z,52.13
2023-09-04T19:31:33.371Z,52.88
2023-09-04T19:33:59.921Z,52.69
2023-09-04T19:36:28.483Z,53.00
2023-09-04T19:38:55.061Z,53.42
2023-09-04T19:41:22.409Z,53.52
2023-09-04T19:43:49.114Z,54.41
2023-09-04T19:46:15.691Z,54.56
2023-09-04T19:48:42.242Z,55.42
2023-09-04T19:51:08.786Z,55.46
2023-09-04T19:53:35.284Z,54.59
2023-09-04T19:56:01.850Z,53.30
2023-09-04T19:58:28.435Z,53.17
2023-09-04T20:00:55.054Z,52.93
2023-09-04T20:03:21.756Z,52.12
2023-09-04T20:05:48.343Z,52.22
2023-09-04T20:08:14.959Z,51.95
2023-09-04T20:10:41.589Z,52.74
2023-09-04T20:13:08.098Z,52.74
2023-09-04T20:15:34.683Z,52.73
2023-09-04T20:18:01.975Z,54.05
2023-09-04T20:20:28.710Z,54.36
2023-09-04T20:22:55.363Z,53.82
2023-09-04T20:25:21.926Z,53.98
2023-09-04T20:27:48.497Z,53.79
2023-09-04T20:30:15.227Z,54.43
2023-09-04T20:32:42.393Z,54.11
2023-09-04T20:35:09.901Z,54.18
2023-09-04T20:37:36.853Z,54.94
2023-09-04T20:40:04.694Z,55.34
2023-09-04T20:42:31.362Z,55.98
2023-09-04T20:44:58.202Z,56.33
2023-09-04T20:47:24.884Z,56.14
2023-09-04T20:49:51.540Z,56.59
2023-09-04T20:52:18.142Z,56.40
2023-09-04T20:54:44.765Z,55.45
2023-09-04T20:57:12.237Z,54.55
2023-09-04T20:59:38.662Z,54.95
2023-09-04T21:02:05.284Z,54.46
2023-09-04T21:04:31.763Z,54.10
2023-09-04T21:07:08.577Z,54.43
2023-09-04T21:09:35.957Z,55.31
2023-09-04T21:12:21.182Z,55.08
2023-09-04T21:15:06.214Z,55.62
2023-09-04T21:17:51.334Z,55.12
2023-09-04T21:20:36.322Z,54.56
2023-09-04T21:23:21.315Z,54.11
2023-09-04T21:26:10.072Z,54.10
2023-09-04T21:28:55.478Z,54.02
2023-09-04T21:31:40.430Z,54.99
2023-09-04T21:34:25.361Z,55.69
2023-09-04T21:37:10.351Z,55.16
2023-09-04T21:39:55.781Z,55.38
2023-09-04T21:42:40.753Z,55.42
2023-09-04T21:45:26.147Z,55.80
2023-09-04T21:48:11.540Z,55.48
2023-09-04T21:50:56.700Z,55.58
2023-09-04T21:53:41.661Z,55.60
2023-09-04T21:56:26.510Z,55.64
2023-09-04T21:59:11.449Z,55.61
2023-09-04T22:01:56.503Z,55.19
2023-09-04T22:04:41.457Z,55.46
2023-09-04T22:07:26.614Z,55.29
2023-09-04T22:10:11.627Z,55.57
2023-09-04T22:12:56.891Z,55.51
2023-09-04T22:15:41.947Z,55.67
2023-09-04T22:18:41.279Z,55.16
2023-09-04T22:21:26.487Z,55.09
2023-09-04T22:24:11.860Z,54.80
2023-09-04T22:26:57.432Z,55.30
2023-09-04T22:29:43.227Z,56.15
2023-09-04T22:32:28.667Z,56.08
2023-09-04T22:35:14.791Z,55.82
2023-09-04T22:37:59.970Z,54.05
2023-09-04T22:40:45.228Z,54.76
2023-09-04T22:43:30.398Z,54.66
2023-09-04T22:46:15.734Z,53.06
2023-09-04T22:49:00.795Z,53.45
2023-09-04T22:51:45.726Z,53.00
2023-09-04T22:54:30.576Z,52.79
2023-09-04T22:57:15.474Z,52.95
2023-09-04T23:00:00.422Z,51.60
2023-09-04T23:02:45.394Z,52.77
2023-09-04T23:05:31.357Z,51.62
2023-09-04T23:08:16.444Z,53.10
2023-09-04T23:11:01.614Z,52.42
2023-09-04T23:13:46.345Z,51.67
2023-09-04T23:16:31.296Z,51.87
2023-09-04T23:19:16.551Z,52.24
2023-09-04T23:21:43.141Z,51.58
2023-09-04T23:24:13.073Z,50.44
2023-09-04T23:26:41.624Z,50.46
2023-09-04T23:29:13.239Z,50.95
2023-09-04T23:31:46.519Z,50.50
2023-09-04T23:34:29.714Z,50.58
2023-09-04T23:37:14.230Z,50.35
2023-09-04T23:39:45.842Z,50.07
2023-09-04T23:42:31.086Z,49.74
2023-09-04T23:45:13.188Z,49.63
2023-09-04T23:47:42.953Z,50.00
2023-09-04T23:50:12.304Z,49.94
2023-09-04T23:52:39.152Z,49.46
2023-09-04T23:55:06.883Z,49.30
2023-09-04T23:57:37.440Z,49.78
